Terminal Aerodrome Forecast
Issued by NWS Wilmington, OH

Current Version | Previous Version | Text Only | Print | Product List | Glossary Off
Versions: 1 2 3 4 5 6 7 8 9 10 11 12 13 14 15 16 17 18 19 20 21 22 23 24 25 26 27 28 29 30 31

000
FTUS41 KILN 201700
TAFILN
TAF
KILN 201732Z 2018/2118 21012G18KT P6SM VCSH BKN060
      TEMPO 2020/2022 5SM -TSRA BKN040CB
     FM210100 27008KT P6SM BKN035
     FM210600 31010KT P6SM OVC012
     FM211400 32012KT P6SM BKN018=

USA.gov is the U.S. government's official web portal to all federal, state and local government web resources and services.